sensor_id;sensor_type;location;lat;lon;timestamp;P1;durP1;ratioP1;P2;durP2;ratioP2
78885;SDS011;68269;52.514;5.722;2023-04-01T00:01:50;3.63;;;1.63;;
78885;SDS011;68269;52.514;5.722;2023-04-01T00:04:20;5.00;;;1.50;;
78885;SDS011;68269;52.514;5.722;2023-04-01T00:06:49;6.72;;;2.20;;
78885;SDS011;68269;52.514;5.722;2023-04-01T00:09:21;7.88;;;1.63;;
78885;SDS011;68269;52.514;5.722;2023-04-01T00:11:50;5.82;;;1.55;;
78885;SDS011;68269;52.514;5.722;2023-04-01T00:14:19;5.05;;;1.27;;
78885;SDS011;68269;52.514;5.722;2023-04-01T00:16:49;5.72;;;1.45;;
78885;SDS011;68269;52.514;5.722;2023-04-01T00:19:18;6.18;;;1.67;;
78885;SDS011;68269;52.514;5.722;2023-04-01T00:21:47;6.07;;;1.63;;
78885;SDS011;68269;52.514;5.722;2023-04-01T00:24:17;5.45;;;1.83;;
78885;SDS011;68269;52.514;5.722;2023-04-01T00:26:49;6.65;;;2.03;;
78885;SDS011;68269;52.514;5.722;2023-04-01T00:29:19;6.80;;;2.00;;
78885;SDS011;68269;52.514;5.722;2023-04-01T00:31:49;6.30;;;1.85;;
78885;SDS011;68269;52.514;5.722;2023-04-01T00:34:19;6.28;;;2.03;;
78885;SDS011;68269;52.514;5.722;2023-04-01T00:36:48;6.10;;;1.30;;
78885;SDS011;68269;52.514;5.722;2023-04-01T00:39:18;4.30;;;1.13;;
78885;SDS011;68269;52.514;5.722;2023-04-01T00:41:50;5.65;;;2.08;;
78885;SDS011;68269;52.514;5.722;2023-04-01T00:44:20;4.35;;;1.70;;
78885;SDS011;68269;52.514;5.722;2023-04-01T00:46:51;6.38;;;1.95;;
78885;SDS011;68269;52.514;5.722;2023-04-01T00:49:21;5.95;;;1.48;;
78885;SDS011;68269;52.514;5.722;2023-04-01T00:51:54;8.30;;;2.50;;
78885;SDS011;68269;52.514;5.722;2023-04-01T00:54:28;6.30;;;1.90;;
78885;SDS011;68269;52.514;5.722;2023-04-01T00:56:59;8.82;;;2.08;;
78885;SDS011;68269;52.514;5.722;2023-04-01T00:59:33;7.53;;;2.70;;
78885;SDS011;68269;52.514;5.722;2023-04-01T01:02:07;5.88;;;1.65;;
78885;SDS011;68269;52.514;5.722;2023-04-01T01:04:39;5.28;;;1.63;;
78885;SDS011;68269;52.514;5.722;2023-04-01T01:07:12;5.18;;;1.45;;
78885;SDS011;68269;52.514;5.722;2023-04-01T01:09:53;6.32;;;1.80;;
78885;SDS011;68269;52.514;5.722;2023-04-01T01:12:28;8.43;;;2.50;;
78885;SDS011;68269;52.514;5.722;2023-04-01T01:15:06;8.25;;;2.13;;
78885;SDS011;68269;52.514;5.722;2023-04-01T01:17:43;7.15;;;1.75;;
78885;SDS011;68269;52.514;5.722;2023-04-01T01:20:24;7.40;;;2.42;;
78885;SDS011;68269;52.514;5.722;2023-04-01T01:23:23;7.88;;;2.35;;
78885;SDS011;68269;52.514;5.722;2023-04-01T01:26:19;7.22;;;2.92;;
78885;SDS011;68269;52.514;5.722;2023-04-01T01:29:08;5.70;;;1.95;;
78885;SDS011;68269;52.514;5.722;2023-04-01T01:31:50;6.40;;;2.03;;
78885;SDS011;68269;52.514;5.722;2023-04-01T01:34:27;6.80;;;1.92;;
78885;SDS011;68269;52.514;5.722;2023-04-01T01:37:09;8.25;;;2.30;;
78885;SDS011;68269;52.514;5.722;2023-04-01T01:39:42;7.80;;;2.72;;
78885;SDS011;68269;52.514;5.722;2023-04-01T01:42:15;9.73;;;2.55;;
78885;SDS011;68269;52.514;5.722;2023-04-01T01:44:47;11.07;;;2.88;;
78885;SDS011;68269;52.514;5.722;2023-04-01T01:47:19;7.93;;;2.60;;
78885;SDS011;68269;52.514;5.722;2023-04-01T01:49:50;10.60;;;3.17;;
78885;SDS011;68269;52.514;5.722;2023-04-01T01:52:24;5.78;;;1.80;;
78885;SDS011;68269;52.514;5.722;2023-04-01T01:54:56;8.15;;;2.50;;
78885;SDS011;68269;52.514;5.722;2023-04-01T01:57:36;6.95;;;2.42;;
78885;SDS011;68269;52.514;5.722;2023-04-01T02:00:14;7.47;;;2.15;;
78885;SDS011;68269;52.514;5.722;2023-04-01T02:02:45;7.78;;;2.75;;
78885;SDS011;68269;52.514;5.722;2023-04-01T02:05:17;8.00;;;2.47;;
78885;SDS011;68269;52.514;5.722;2023-04-01T02:07:54;10.05;;;2.65;;
78885;SDS011;68269;52.514;5.722;2023-04-01T02:10:27;10.57;;;2.20;;
78885;SDS011;68269;52.514;5.722;2023-04-01T02:13:01;7.90;;;2.17;;
78885;SDS011;68269;52.514;5.722;2023-04-01T02:15:37;8.23;;;2.78;;
78885;SDS011;68269;52.514;5.722;2023-04-01T02:18:10;6.40;;;1.83;;
78885;SDS011;68269;52.514;5.722;2023-04-01T02:20:41;8.48;;;2.42;;
78885;SDS011;68269;52.514;5.722;2023-04-01T02:23:15;8.82;;;2.78;;
78885;SDS011;68269;52.514;5.722;2023-04-01T02:25:45;6.50;;;2.58;;
78885;SDS011;68269;52.514;5.722;2023-04-01T02:28:16;10.32;;;2.90;;
78885;SDS011;68269;52.514;5.722;2023-04-01T02:30:48;9.52;;;2.28;;
78885;SDS011;68269;52.514;5.722;2023-04-01T02:33:19;8.52;;;2.05;;
78885;SDS011;68269;52.514;5.722;2023-04-01T02:35:49;7.30;;;2.45;;
78885;SDS011;68269;52.514;5.722;2023-04-01T02:38:21;7.85;;;2.28;;
78885;SDS011;68269;52.514;5.722;2023-04-01T02:40:52;10.90;;;2.45;;
78885;SDS011;68269;52.514;5.722;2023-04-01T02:43:26;10.07;;;2.67;;
78885;SDS011;68269;52.514;5.722;2023-04-01T02:45:56;8.90;;;1.88;;
78885;SDS011;68269;52.514;5.722;2023-04-01T02:48:25;13.85;;;2.72;;
78885;SDS011;68269;52.514;5.722;2023-04-01T02:50:54;7.78;;;2.65;;
78885;SDS011;68269;52.514;5.722;2023-04-01T02:53:26;9.02;;;2.28;;
78885;SDS011;68269;52.514;5.722;2023-04-01T02:55:56;11.73;;;3.47;;
78885;SDS011;68269;52.514;5.722;2023-04-01T02:58:25;9.82;;;2.53;;
78885;SDS011;68269;52.514;5.722;2023-04-01T03:00:54;7.15;;;2.10;;
78885;SDS011;68269;52.514;5.722;2023-04-01T03:03:24;11.32;;;2.38;;
78885;SDS011;68269;52.514;5.722;2023-04-01T03:05:53;8.35;;;2.40;;
78885;SDS011;68269;52.514;5.722;2023-04-01T03:08:28;12.35;;;2.47;;
78885;SDS011;68269;52.514;5.722;2023-04-01T03:10:58;6.88;;;2.05;;
78885;SDS011;68269;52.514;5.722;2023-04-01T03:13:27;7.70;;;2.00;;
78885;SDS011;68269;52.514;5.722;2023-04-01T03:15:57;8.43;;;2.28;;
78885;SDS011;68269;52.514;5.722;2023-04-01T03:18:26;7.97;;;2.13;;
78885;SDS011;68269;52.514;5.722;2023-04-01T03:20:56;8.13;;;2.85;;
78885;SDS011;68269;52.514;5.722;2023-04-01T03:23:28;10.38;;;2.80;;
78885;SDS011;68269;52.514;5.722;2023-04-01T03:25:58;7.90;;;2.45;;
78885;SDS011;68269;52.514;5.722;2023-04-01T03:28:27;8.93;;;2.47;;
78885;SDS011;68269;52.514;5.722;2023-04-01T03:30:56;11.90;;;3.25;;
78885;SDS011;68269;52.514;5.722;2023-04-01T03:33:26;7.53;;;2.40;;
78885;SDS011;68269;52.514;5.722;2023-04-01T03:35:55;9.57;;;2.40;;
78885;SDS011;68269;52.514;5.722;2023-04-01T03:38:24;9.82;;;2.50;;
78885;SDS011;68269;52.514;5.722;2023-04-01T03:40:56;6.72;;;1.67;;
78885;SDS011;68269;52.514;5.722;2023-04-01T03:43:26;7.20;;;2.28;;
78885;SDS011;68269;52.514;5.722;2023-04-01T03:45:56;9.27;;;2.42;;
78885;SDS011;68269;52.514;5.722;2023-04-01T03:48:25;6.90;;;2.17;;
78885;SDS011;68269;52.514;5.722;2023-04-01T03:50:55;10.85;;;2.67;;
78885;SDS011;68269;52.514;5.722;2023-04-01T03:53:24;9.68;;;2.65;;
78885;SDS011;68269;52.514;5.722;2023-04-01T03:56:02;5.15;;;1.40;;
78885;SDS011;68269;52.514;5.722;2023-04-01T03:58:34;11.98;;;2.92;;
78885;SDS011;68269;52.514;5.722;2023-04-01T04:01:16;8.40;;;2.38;;
78885;SDS011;68269;52.514;5.722;2023-04-01T04:03:49;9.25;;;3.33;;
78885;SDS011;68269;52.514;5.722;2023-04-01T04:06:19;7.25;;;1.83;;
78885;SDS011;68269;52.514;5.722;2023-04-01T04:08:48;7.93;;;2.33;;
78885;SDS011;68269;52.514;5.722;2023-04-01T04:11:21;6.35;;;1.80;;
78885;SDS011;68269;52.514;5.722;2023-04-01T04:13:52;6.65;;;2.20;;
78885;SDS011;68269;52.514;5.722;2023-04-01T04:16:21;9.65;;;2.15;;
78885;SDS011;68269;52.514;5.722;2023-04-01T04:18:58;6.93;;;1.75;;
78885;SDS011;68269;52.514;5.722;2023-04-01T04:21:27;7.10;;;1.85;;
78885;SDS011;68269;52.514;5.722;2023-04-01T04:23:57;6.57;;;1.90;;
78885;SDS011;68269;52.514;5.722;2023-04-01T04:26:35;5.22;;;1.13;;
78885;SDS011;68269;52.514;5.722;2023-04-01T04:29:05;7.85;;;2.00;;
78885;SDS011;68269;52.514;5.722;2023-04-01T04:31:34;9.05;;;2.20;;
78885;SDS011;68269;52.514;5.722;2023-04-01T04:34:03;6.63;;;1.80;;
78885;SDS011;68269;52.514;5.722;2023-04-01T04:36:35;6.93;;;2.20;;
78885;SDS011;68269;52.514;5.722;2023-04-01T04:39:04;8.57;;;1.80;;
78885;SDS011;68269;52.514;5.722;2023-04-01T04:41:40;7.47;;;2.28;;
78885;SDS011;68269;52.514;5.722;2023-04-01T04:44:10;7.43;;;2.03;;
78885;SDS011;68269;52.514;5.722;2023-04-01T04:46:40;9.18;;;2.13;;
78885;SDS011;68269;52.514;5.722;2023-04-01T04:49:14;9.82;;;2.30;;
78885;SDS011;68269;52.514;5.722;2023-04-01T04:51:43;6.28;;;1.50;;
78885;SDS011;68269;52.514;5.722;2023-04-01T04:54:14;4.72;;;1.30;;
78885;SDS011;68269;52.514;5.722;2023-04-01T04:56:53;6.55;;;1.75;;
78885;SDS011;68269;52.514;5.722;2023-04-01T04:59:24;6.55;;;2.03;;
78885;SDS011;68269;52.514;5.722;2023-04-01T05:02:03;6.25;;;2.13;;
78885;SDS011;68269;52.514;5.722;2023-04-01T05:04:34;11.52;;;2.85;;
78885;SDS011;68269;52.514;5.722;2023-04-01T05:07:06;8.77;;;1.92;;
78885;SDS011;68269;52.514;5.722;2023-04-01T05:09:35;5.03;;;1.45;;
78885;SDS011;68269;52.514;5.722;2023-04-01T05:12:08;7.80;;;2.38;;
78885;SDS011;68269;52.514;5.722;2023-04-01T05:14:54;7.32;;;2.13;;
78885;SDS011;68269;52.514;5.722;2023-04-01T05:17:24;7.03;;;2.22;;
78885;SDS011;68269;52.514;5.722;2023-04-01T05:19:53;5.97;;;1.67;;
78885;SDS011;68269;52.514;5.722;2023-04-01T05:22:22;6.20;;;1.90;;
78885;SDS011;68269;52.514;5.722;2023-04-01T05:24:52;8.43;;;2.28;;
78885;SDS011;68269;52.514;5.722;2023-04-01T05:27:24;8.27;;;2.25;;
78885;SDS011;68269;52.514;5.722;2023-04-01T05:29:54;6.13;;;1.63;;
78885;SDS011;68269;52.514;5.722;2023-04-01T05:32:49;7.28;;;1.85;;
78885;SDS011;68269;52.514;5.722;2023-04-01T05:35:18;8.07;;;2.58;;
78885;SDS011;68269;52.514;5.722;2023-04-01T05:37:47;7.43;;;2.03;;
78885;SDS011;68269;52.514;5.722;2023-04-01T05:40:17;5.97;;;1.98;;
78885;SDS011;68269;52.514;5.722;2023-04-01T05:42:49;7.75;;;2.00;;
78885;SDS011;68269;52.514;5.722;2023-04-01T05:45:18;9.82;;;2.75;;
78885;SDS011;68269;52.514;5.722;2023-04-01T05:48:14;7.22;;;2.38;;
78885;SDS011;68269;52.514;5.722;2023-04-01T05:50:43;6.30;;;1.92;;
78885;SDS011;68269;52.514;5.722;2023-04-01T05:53:13;8.30;;;2.42;;
78885;SDS011;68269;52.514;5.722;2023-04-01T05:55:43;5.22;;;1.65;;
78885;SDS011;68269;52.514;5.722;2023-04-01T05:58:19;7.05;;;1.88;;
78885;SDS011;68269;52.514;5.722;2023-04-01T06:00:48;8.77;;;2.63;;
78885;SDS011;68269;52.514;5.722;2023-04-01T06:03:18;5.72;;;1.85;;
78885;SDS011;68269;52.514;5.722;2023-04-01T06:05:47;6.40;;;2.05;;
78885;SDS011;68269;52.514;5.722;2023-04-01T06:08:17;10.05;;;2.33;;
78885;SDS011;68269;52.514;5.722;2023-04-01T06:10:53;8.10;;;2.45;;
78885;SDS011;68269;52.514;5.722;2023-04-01T06:13:36;8.40;;;1.70;;
78885;SDS011;68269;52.514;5.722;2023-04-01T06:16:21;6.40;;;1.38;;
78885;SDS011;68269;52.514;5.722;2023-04-01T06:19:03;2.88;;;0.73;;
78885;SDS011;68269;52.514;5.722;2023-04-01T06:21:50;4.60;;;1.02;;
78885;SDS011;68269;52.514;5.722;2023-04-01T06:24:47;6.15;;;1.00;;
78885;SDS011;68269;52.514;5.722;2023-04-01T06:30:38;3.00;;;0.80;;
78885;SDS011;68269;52.514;5.722;2023-04-01T06:33:25;2.50;;;0.50;;
78885;SDS011;68269;52.514;5.722;2023-04-01T06:36:21;3.75;;;1.00;;
78885;SDS011;68269;52.514;5.722;2023-04-01T06:39:04;4.55;;;1.05;;
78885;SDS011;68269;52.514;5.722;2023-04-01T06:44:56;2.92;;;0.80;;
78885;SDS011;68269;52.514;5.722;2023-04-01T06:47:57;3.53;;;1.13;;
78885;SDS011;68269;52.514;5.722;2023-04-01T06:51:00;1.35;;;0.47;;
78885;SDS011;68269;52.514;5.722;2023-04-01T06:54:09;3.80;;;0.98;;
78885;SDS011;68269;52.514;5.722;2023-04-01T06:57:00;4.63;;;0.90;;
78885;SDS011;68269;52.514;5.722;2023-04-01T06:59:34;3.05;;;0.82;;
78885;SDS011;68269;52.514;5.722;2023-04-01T07:02:11;4.05;;;0.85;;
78885;SDS011;68269;52.514;5.722;2023-04-01T07:04:53;3.88;;;0.75;;
78885;SDS011;68269;52.514;5.722;2023-04-01T07:07:29;4.22;;;0.80;;
78885;SDS011;68269;52.514;5.722;2023-04-01T07:10:09;3.03;;;0.60;;
78885;SDS011;68269;52.514;5.722;2023-04-01T07:13:02;3.05;;;0.68;;
78885;SDS011;68269;52.514;5.722;2023-04-01T07:16:12;2.70;;;0.90;;
78885;SDS011;68269;52.514;5.722;2023-04-01T07:18:46;3.40;;;0.73;;
78885;SDS011;68269;52.514;5.722;2023-04-01T07:21:26;2.75;;;0.85;;
78885;SDS011;68269;52.514;5.722;2023-04-01T07:24:13;1.25;;;0.55;;
78885;SDS011;68269;52.514;5.722;2023-04-01T07:27:01;2.30;;;0.60;;
78885;SDS011;68269;52.514;5.722;2023-04-01T07:29:33;3.88;;;0.63;;
78885;SDS011;68269;52.514;5.722;2023-04-01T07:32:16;5.03;;;0.60;;
78885;SDS011;68269;52.514;5.722;2023-04-01T07:34:54;2.10;;;0.70;;
78885;SDS011;68269;52.514;5.722;2023-04-01T07:37:34;2.92;;;0.73;;
78885;SDS011;68269;52.514;5.722;2023-04-01T07:40:14;2.60;;;0.80;;
78885;SDS011;68269;52.514;5.722;2023-04-01T07:42:55;3.78;;;0.90;;
78885;SDS011;68269;52.514;5.722;2023-04-01T07:45:39;2.22;;;0.57;;
78885;SDS011;68269;52.514;5.722;2023-04-01T07:48:18;2.10;;;0.70;;
78885;SDS011;68269;52.514;5.722;2023-04-01T07:50:53;4.15;;;0.90;;
78885;SDS011;68269;52.514;5.722;2023-04-01T07:53:31;2.90;;;0.80;;
78885;SDS011;68269;52.514;5.722;2023-04-01T07:56:06;4.30;;;1.00;;
78885;SDS011;68269;52.514;5.722;2023-04-01T07:58:44;5.72;;;1.20;;
78885;SDS011;68269;52.514;5.722;2023-04-01T08:01:43;2.58;;;0.68;;
78885;SDS011;68269;52.514;5.722;2023-04-01T08:04:30;3.50;;;1.17;;
78885;SDS011;68269;52.514;5.722;2023-04-01T08:07:11;3.03;;;1.00;;
78885;SDS011;68269;52.514;5.722;2023-04-01T08:10:08;4.10;;;1.13;;
78885;SDS011;68269;52.514;5.722;2023-04-01T08:13:03;2.55;;;0.80;;
78885;SDS011;68269;52.514;5.722;2023-04-01T08:15:59;3.72;;;1.02;;
78885;SDS011;68269;52.514;5.722;2023-04-01T08:18:43;2.38;;;0.70;;
78885;SDS011;68269;52.514;5.722;2023-04-01T08:21:23;3.58;;;1.10;;
78885;SDS011;68269;52.514;5.722;2023-04-01T08:23:56;3.55;;;0.85;;
78885;SDS011;68269;52.514;5.722;2023-04-01T08:26:32;4.25;;;1.38;;
78885;SDS011;68269;52.514;5.722;2023-04-01T08:29:06;3.38;;;1.10;;
78885;SDS011;68269;52.514;5.722;2023-04-01T08:31:43;3.97;;;0.90;;
78885;SDS011;68269;52.514;5.722;2023-04-01T08:34:19;3.53;;;0.82;;
78885;SDS011;68269;52.514;5.722;2023-04-01T08:36:53;4.22;;;1.00;;
78885;SDS011;68269;52.514;5.722;2023-04-01T08:39:29;2.83;;;0.65;;
78885;SDS011;68269;52.514;5.722;2023-04-01T08:42:07;2.42;;;0.75;;
78885;SDS011;68269;52.514;5.722;2023-04-01T08:45:12;4.25;;;1.00;;
78885;SDS011;68269;52.514;5.722;2023-04-01T08:48:06;2.90;;;0.70;;
78885;SDS011;68269;52.514;5.722;2023-04-01T08:50:50;2.10;;;0.50;;
78885;SDS011;68269;52.514;5.722;2023-04-01T08:53:35;2.50;;;0.60;;
78885;SDS011;68269;52.514;5.722;2023-04-01T08:56:26;2.65;;;0.75;;
78885;SDS011;68269;52.514;5.722;2023-04-01T08:59:13;3.15;;;0.85;;
78885;SDS011;68269;52.514;5.722;2023-04-01T09:05:29;2.47;;;0.63;;
78885;SDS011;68269;52.514;5.722;2023-04-01T09:08:12;2.75;;;0.70;;
78885;SDS011;68269;52.514;5.722;2023-04-01T09:10:53;4.45;;;1.10;;
78885;SDS011;68269;52.514;5.722;2023-04-01T09:14:07;2.78;;;0.75;;
78885;SDS011;68269;52.514;5.722;2023-04-01T09:20:19;2.42;;;0.70;;
78885;SDS011;68269;52.514;5.722;2023-04-01T09:26:20;3.90;;;1.13;;
78885;SDS011;68269;52.514;5.722;2023-04-01T09:29:00;2.53;;;0.57;;
78885;SDS011;68269;52.514;5.722;2023-04-01T09:31:46;2.00;;;0.40;;
78885;SDS011;68269;52.514;5.722;2023-04-01T09:34:52;2.33;;;0.65;;
78885;SDS011;68269;52.514;5.722;2023-04-01T09:37:34;3.13;;;0.88;;
78885;SDS011;68269;52.514;5.722;2023-04-01T09:40:17;1.95;;;0.38;;
78885;SDS011;68269;52.514;5.722;2023-04-01T09:43:12;1.33;;;0.50;;
78885;SDS011;68269;52.514;5.722;2023-04-01T09:45:58;4.70;;;1.13;;
78885;SDS011;68269;52.514;5.722;2023-04-01T09:48:46;2.92;;;0.80;;
78885;SDS011;68269;52.514;5.722;2023-04-01T09:51:47;1.58;;;0.60;;
78885;SDS011;68269;52.514;5.722;2023-04-01T09:54:31;2.83;;;0.55;;
78885;SDS011;68269;52.514;5.722;2023-04-01T09:57:22;1.55;;;0.60;;
78885;SDS011;68269;52.514;5.722;2023-04-01T10:00:36;1.85;;;0.52;;
78885;SDS011;68269;52.514;5.722;2023-04-01T10:12:42;3.70;;;1.23;;
78885;SDS011;68269;52.514;5.722;2023-04-01T10:24:30;5.40;;;1.30;;
78885;SDS011;68269;52.514;5.722;2023-04-01T10:27:24;4.75;;;1.40;;
78885;SDS011;68269;52.514;5.722;2023-04-01T10:30:32;4.93;;;1.63;;
78885;SDS011;68269;52.514;5.722;2023-04-01T10:33:50;4.53;;;1.08;;
78885;SDS011;68269;52.514;5.722;2023-04-01T10:39:38;4.32;;;1.75;;
78885;SDS011;68269;52.514;5.722;2023-04-01T10:46:26;5.90;;;1.52;;
78885;SDS011;68269;52.514;5.722;2023-04-01T10:56:07;6.15;;;1.13;;
78885;SDS011;68269;52.514;5.722;2023-04-01T11:09:30;6.25;;;1.83;;
78885;SDS011;68269;52.514;5.722;2023-04-01T11:19:10;7.05;;;1.90;;
78885;SDS011;68269;52.514;5.722;2023-04-01T11:34:27;7.07;;;2.15;;
78885;SDS011;68269;52.514;5.722;2023-04-01T11:40:08;7.53;;;2.00;;
78885;SDS011;68269;52.514;5.722;2023-04-01T11:43:10;8.32;;;2.40;;
78885;SDS011;68269;52.514;5.722;2023-04-01T11:46:07;9.60;;;2.70;;
78885;SDS011;68269;52.514;5.722;2023-04-01T11:48:48;6.22;;;2.08;;
78885;SDS011;68269;52.514;5.722;2023-04-01T11:51:33;8.65;;;2.63;;
78885;SDS011;68269;52.514;5.722;2023-04-01T11:54:13;7.20;;;2.03;;
78885;SDS011;68269;52.514;5.722;2023-04-01T11:57:00;10.48;;;2.63;;
78885;SDS011;68269;52.514;5.722;2023-04-01T11:59:56;8.73;;;2.45;;
78885;SDS011;68269;52.514;5.722;2023-04-01T12:03:00;9.82;;;2.78;;
78885;SDS011;68269;52.514;5.722;2023-04-01T12:05:46;8.55;;;2.55;;
78885;SDS011;68269;52.514;5.722;2023-04-01T12:08:27;10.32;;;2.75;;
78885;SDS011;68269;52.514;5.722;2023-04-01T12:11:07;8.15;;;2.40;;
78885;SDS011;68269;52.514;5.722;2023-04-01T12:13:45;16.55;;;2.53;;
78885;SDS011;68269;52.514;5.722;2023-04-01T12:16:26;7.30;;;2.10;;
78885;SDS011;68269;52.514;5.722;2023-04-01T12:19:09;7.88;;;2.25;;
78885;SDS011;68269;52.514;5.722;2023-04-01T12:21:45;8.95;;;2.83;;
78885;SDS011;68269;52.514;5.722;2023-04-01T12:27:24;7.55;;;1.88;;
78885;SDS011;68269;52.514;5.722;2023-04-01T12:33:06;5.38;;;1.00;;
78885;SDS011;68269;52.514;5.722;2023-04-01T12:35:55;4.10;;;1.55;;
78885;SDS011;68269;52.514;5.722;2023-04-01T12:38:36;5.28;;;1.75;;
78885;SDS011;68269;52.514;5.722;2023-04-01T12:41:21;5.07;;;1.50;;
78885;SDS011;68269;52.514;5.722;2023-04-01T12:46:52;7.15;;;1.67;;
78885;SDS011;68269;52.514;5.722;2023-04-01T12:49:36;5.07;;;1.52;;
78885;SDS011;68269;52.514;5.722;2023-04-01T12:52:19;5.00;;;1.60;;
78885;SDS011;68269;52.514;5.722;2023-04-01T12:55:09;5.80;;;1.23;;
78885;SDS011;68269;52.514;5.722;2023-04-01T12:58:10;4.85;;;1.30;;
78885;SDS011;68269;52.514;5.722;2023-04-01T13:01:09;5.88;;;1.75;;
78885;SDS011;68269;52.514;5.722;2023-04-01T13:07:04;6.45;;;1.80;;
78885;SDS011;68269;52.514;5.722;2023-04-01T13:09:52;5.43;;;1.33;;
78885;SDS011;68269;52.514;5.722;2023-04-01T13:12:42;6.30;;;1.77;;
78885;SDS011;68269;52.514;5.722;2023-04-01T13:15:38;5.00;;;1.10;;
78885;SDS011;68269;52.514;5.722;2023-04-01T13:18:25;5.47;;;1.35;;
78885;SDS011;68269;52.514;5.722;2023-04-01T13:21:04;5.22;;;1.30;;
78885;SDS011;68269;52.514;5.722;2023-04-01T13:23:45;3.55;;;1.23;;
78885;SDS011;68269;52.514;5.722;2023-04-01T13:26:26;7.32;;;2.10;;
78885;SDS011;68269;52.514;5.722;2023-04-01T13:31:41;3.47;;;0.80;;
78885;SDS011;68269;52.514;5.722;2023-04-01T13:34:22;5.40;;;1.33;;
78885;SDS011;68269;52.514;5.722;2023-04-01T13:37:04;3.55;;;0.98;;
78885;SDS011;68269;52.514;5.722;2023-04-01T13:39:50;4.70;;;1.20;;
78885;SDS011;68269;52.514;5.722;2023-04-01T13:42:40;3.30;;;1.00;;
78885;SDS011;68269;52.514;5.722;2023-04-01T13:45:14;2.88;;;1.02;;
78885;SDS011;68269;52.514;5.722;2023-04-01T13:50:52;3.90;;;1.00;;
78885;SDS011;68269;52.514;5.722;2023-04-01T13:54:00;3.85;;;1.13;;
78885;SDS011;68269;52.514;5.722;2023-04-01T13:56:49;2.65;;;0.98;;
78885;SDS011;68269;52.514;5.722;2023-04-01T13:59:40;3.10;;;0.93;;
78885;SDS011;68269;52.514;5.722;2023-04-01T14:05:54;4.03;;;1.00;;
78885;SDS011;68269;52.514;5.722;2023-04-01T14:08:39;5.60;;;1.23;;
78885;SDS011;68269;52.514;5.722;2023-04-01T14:11:17;4.05;;;1.42;;
78885;SDS011;68269;52.514;5.722;2023-04-01T14:13:56;2.45;;;0.68;;
78885;SDS011;68269;52.514;5.722;2023-04-01T14:19:36;4.35;;;0.90;;
78885;SDS011;68269;52.514;5.722;2023-04-01T14:22:29;3.22;;;1.13;;
78885;SDS011;68269;52.514;5.722;2023-04-01T14:25:13;2.53;;;1.00;;
78885;SDS011;68269;52.514;5.722;2023-04-01T14:28:12;2.95;;;0.90;;
78885;SDS011;68269;52.514;5.722;2023-04-01T14:30:51;3.65;;;1.10;;
78885;SDS011;68269;52.514;5.722;2023-04-01T14:33:43;1.98;;;0.68;;
78885;SDS011;68269;52.514;5.722;2023-04-01T14:36:31;3.65;;;1.08;;
78885;SDS011;68269;52.514;5.722;2023-04-01T14:42:36;3.45;;;0.60;;
78885;SDS011;68269;52.514;5.722;2023-04-01T14:45:20;3.53;;;0.98;;
78885;SDS011;68269;52.514;5.722;2023-04-01T14:48:25;4.15;;;1.40;;
78885;SDS011;68269;52.514;5.722;2023-04-01T14:51:03;4.40;;;1.10;;
78885;SDS011;68269;52.514;5.722;2023-04-01T14:53:38;3.42;;;1.05;;
78885;SDS011;68269;52.514;5.722;2023-04-01T14:56:12;2.67;;;0.98;;
78885;SDS011;68269;52.514;5.722;2023-04-01T14:59:13;2.47;;;0.68;;
78885;SDS011;68269;52.514;5.722;2023-04-01T15:01:47;5.05;;;1.02;;
78885;SDS011;68269;52.514;5.722;2023-04-01T15:04:29;5.93;;;1.30;;
78885;SDS011;68269;52.514;5.722;2023-04-01T15:07:19;3.25;;;1.02;;
78885;SDS011;68269;52.514;5.722;2023-04-01T15:10:08;4.15;;;0.90;;
78885;SDS011;68269;52.514;5.722;2023-04-01T15:12:49;5.22;;;1.42;;
78885;SDS011;68269;52.514;5.722;2023-04-01T15:15:31;3.22;;;1.00;;
78885;SDS011;68269;52.514;5.722;2023-04-01T15:18:11;3.92;;;1.10;;
78885;SDS011;68269;52.514;5.722;2023-04-01T15:23:55;3.08;;;0.80;;
78885;SDS011;68269;52.514;5.722;2023-04-01T15:26:31;3.22;;;1.10;;
78885;SDS011;68269;52.514;5.722;2023-04-01T15:29:23;3.28;;;1.05;;
78885;SDS011;68269;52.514;5.722;2023-04-01T15:32:17;2.70;;;0.90;;
78885;SDS011;68269;52.514;5.722;2023-04-01T15:34:50;2.25;;;0.63;;
78885;SDS011;68269;52.514;5.722;2023-04-01T15:37:29;3.05;;;0.60;;
78885;SDS011;68269;52.514;5.722;2023-04-01T15:40:11;2.95;;;1.00;;
78885;SDS011;68269;52.514;5.722;2023-04-01T15:42:58;2.67;;;0.73;;
78885;SDS011;68269;52.514;5.722;2023-04-01T15:45:41;3.17;;;1.00;;
78885;SDS011;68269;52.514;5.722;2023-04-01T15:48:26;2.75;;;0.68;;
78885;SDS011;68269;52.514;5.722;2023-04-01T15:51:21;2.67;;;0.77;;
78885;SDS011;68269;52.514;5.722;2023-04-01T15:54:05;2.03;;;1.00;;
78885;SDS011;68269;52.514;5.722;2023-04-01T15:56:53;2.53;;;0.60;;
78885;SDS011;68269;52.514;5.722;2023-04-01T15:59:43;1.38;;;0.60;;
78885;SDS011;68269;52.514;5.722;2023-04-01T16:02:22;2.47;;;0.93;;
78885;SDS011;68269;52.514;5.722;2023-04-01T16:05:03;1.33;;;0.57;;
78885;SDS011;68269;52.514;5.722;2023-04-01T16:07:48;2.00;;;0.60;;
78885;SDS011;68269;52.514;5.722;2023-04-01T16:10:29;2.28;;;0.70;;
78885;SDS011;68269;52.514;5.722;2023-04-01T16:13:17;2.63;;;0.80;;
78885;SDS011;68269;52.514;5.722;2023-04-01T16:15:59;3.53;;;0.90;;
78885;SDS011;68269;52.514;5.722;2023-04-01T16:18:49;2.33;;;0.82;;
78885;SDS011;68269;52.514;5.722;2023-04-01T16:21:38;2.72;;;1.00;;
78885;SDS011;68269;52.514;5.722;2023-04-01T16:24:15;1.90;;;0.90;;
78885;SDS011;68269;52.514;5.722;2023-04-01T16:26:52;1.70;;;0.60;;
78885;SDS011;68269;52.514;5.722;2023-04-01T16:29:27;2.78;;;0.73;;
78885;SDS011;68269;52.514;5.722;2023-04-01T16:32:11;2.65;;;0.80;;
78885;SDS011;68269;52.514;5.722;2023-04-01T16:34:47;2.03;;;0.88;;
78885;SDS011;68269;52.514;5.722;2023-04-01T16:37:32;1.65;;;0.70;;
78885;SDS011;68269;52.514;5.722;2023-04-01T16:40:11;1.60;;;0.60;;
78885;SDS011;68269;52.514;5.722;2023-04-01T16:42:46;1.73;;;0.60;;
78885;SDS011;68269;52.514;5.722;2023-04-01T16:45:22;1.50;;;0.65;;
78885;SDS011;68269;52.514;5.722;2023-04-01T16:48:00;1.45;;;0.68;;
78885;SDS011;68269;52.514;5.722;2023-04-01T16:50:40;3.50;;;0.70;;
78885;SDS011;68269;52.514;5.722;2023-04-01T16:55:54;1.83;;;0.80;;
78885;SDS011;68269;52.514;5.722;2023-04-01T16:58:27;2.47;;;0.80;;
78885;SDS011;68269;52.514;5.722;2023-04-01T17:01:04;3.33;;;0.95;;
78885;SDS011;68269;52.514;5.722;2023-04-01T17:03:37;2.47;;;0.70;;
78885;SDS011;68269;52.514;5.722;2023-04-01T17:06:21;2.78;;;1.02;;
78885;SDS011;68269;52.514;5.722;2023-04-01T17:11:54;2.38;;;0.70;;
78885;SDS011;68269;52.514;5.722;2023-04-01T17:14:30;1.90;;;0.60;;
78885;SDS011;68269;52.514;5.722;2023-04-01T17:17:18;2.15;;;0.52;;
78885;SDS011;68269;52.514;5.722;2023-04-01T17:20:07;2.97;;;0.80;;
78885;SDS011;68269;52.514;5.722;2023-04-01T17:22:54;6.35;;;1.05;;
78885;SDS011;68269;52.514;5.722;2023-04-01T17:25:45;3.15;;;0.98;;
78885;SDS011;68269;52.514;5.722;2023-04-01T17:28:34;2.15;;;0.75;;
78885;SDS011;68269;52.514;5.722;2023-04-01T17:31:14;4.75;;;1.30;;
78885;SDS011;68269;52.514;5.722;2023-04-01T17:33:57;1.60;;;0.63;;
78885;SDS011;68269;52.514;5.722;2023-04-01T17:36:41;3.75;;;1.00;;
78885;SDS011;68269;52.514;5.722;2023-04-01T17:39:30;2.75;;;0.98;;
78885;SDS011;68269;52.514;5.722;2023-04-01T17:42:13;1.92;;;0.88;;
78885;SDS011;68269;52.514;5.722;2023-04-01T17:44:47;2.05;;;0.65;;
78885;SDS011;68269;52.514;5.722;2023-04-01T17:47:28;3.10;;;0.95;;
78885;SDS011;68269;52.514;5.722;2023-04-01T17:58:44;4.20;;;1.30;;
78885;SDS011;68269;52.514;5.722;2023-04-01T18:01:21;6.05;;;1.40;;
78885;SDS011;68269;52.514;5.722;2023-04-01T18:04:07;5.50;;;1.80;;
78885;SDS011;68269;52.514;5.722;2023-04-01T18:06:53;5.15;;;1.77;;
78885;SDS011;68269;52.514;5.722;2023-04-01T18:09:39;3.50;;;1.30;;
78885;SDS011;68269;52.514;5.722;2023-04-01T18:12:18;2.25;;;0.70;;